sensor_id;sensor_type;location;lat;lon;timestamp;temperature;humidity
29571;DHT22;16814;52.118;11.436;2023-05-01T00:00:48;5.90;99.90
29571;DHT22;16814;52.118;11.436;2023-05-01T00:03:16;5.90;99.90
29571;DHT22;16814;52.118;11.436;2023-05-01T00:05:43;5.90;99.90
29571;DHT22;16814;52.118;11.436;2023-05-01T00:08:12;5.90;99.90
29571;DHT22;16814;52.118;11.436;2023-05-01T00:10:38;5.90;99.90
29571;DHT22;16814;52.118;11.436;2023-05-01T00:13:03;5.90;99.90
29571;DHT22;16814;52.118;11.436;2023-05-01T00:15:31;5.80;99.90
29571;DHT22;16814;52.118;11.436;2023-05-01T00:17:57;5.80;99.90
29571;DHT22;16814;52.118;11.436;2023-05-01T00:20:26;5.70;99.90
29571;DHT22;16814;52.118;11.436;2023-05-01T00:22:52;5.60;99.90
29571;DHT22;16814;52.118;11.436;2023-05-01T00:25:20;5.60;99.90
29571;DHT22;16814;52.118;11.436;2023-05-01T00:27:46;5.50;99.90
29571;DHT22;16814;52.118;11.436;2023-05-01T00:30:12;5.50;99.90
29571;DHT22;16814;52.118;11.436;2023-05-01T00:32:38;5.50;99.90
29571;DHT22;16814;52.118;11.436;2023-05-01T00:35:04;5.60;99.90
29571;DHT22;16814;52.118;11.436;2023-05-01T00:37:29;5.60;99.90
29571;DHT22;16814;52.118;11.436;2023-05-01T00:39:55;5.60;99.90
29571;DHT22;16814;52.118;11.436;2023-05-01T00:42:20;5.50;99.90
29571;DHT22;16814;52.118;11.436;2023-05-01T00:44:46;5.40;99.90
29571;DHT22;16814;52.118;11.436;2023-05-01T00:47:14;5.40;99.90
29571;DHT22;16814;52.118;11.436;2023-05-01T00:49:41;5.40;99.90
29571;DHT22;16814;52.118;11.436;2023-05-01T00:52:07;5.30;99.90
29571;DHT22;16814;52.118;11.436;2023-05-01T00:54:35;5.20;99.90
29571;DHT22;16814;52.118;11.436;2023-05-01T00:57:01;5.10;99.90
29571;DHT22;16814;52.118;11.436;2023-05-01T00:59:26;5.10;99.90
29571;DHT22;16814;52.118;11.436;2023-05-01T01:01:53;5.10;99.90
29571;DHT22;16814;52.118;11.436;2023-05-01T01:04:20;5.00;99.90
29571;DHT22;16814;52.118;11.436;2023-05-01T01:07:02;4.90;99.90
29571;DHT22;16814;52.118;11.436;2023-05-01T01:12:32;4.90;99.90
29571;DHT22;16814;52.118;11.436;2023-05-01T01:17:56;4.90;99.90
29571;DHT22;16814;52.118;11.436;2023-05-01T01:20:29;4.90;99.90
29571;DHT22;16814;52.118;11.436;2023-05-01T01:23:05;5.00;99.90
29571;DHT22;16814;52.118;11.436;2023-05-01T01:25:49;5.00;99.90
29571;DHT22;16814;52.118;11.436;2023-05-01T01:31:20;5.00;99.90
29571;DHT22;16814;52.118;11.436;2023-05-01T01:36:33;5.00;99.90
29571;DHT22;16814;52.118;11.436;2023-05-01T01:41:53;4.90;99.90
29571;DHT22;16814;52.118;11.436;2023-05-01T01:44:37;4.90;99.90
29571;DHT22;16814;52.118;11.436;2023-05-01T01:47:06;4.90;99.90
29571;DHT22;16814;52.118;11.436;2023-05-01T01:49:33;4.80;99.90
29571;DHT22;16814;52.118;11.436;2023-05-01T01:52:02;4.80;99.90
29571;DHT22;16814;52.118;11.436;2023-05-01T01:54:41;4.90;99.90
29571;DHT22;16814;52.118;11.436;2023-05-01T01:57:08;4.80;99.90
29571;DHT22;16814;52.118;11.436;2023-05-01T01:59:35;4.70;99.90
29571;DHT22;16814;52.118;11.436;2023-05-01T02:02:01;4.60;99.90
29571;DHT22;16814;52.118;11.436;2023-05-01T02:04:29;4.50;99.90
29571;DHT22;16814;52.118;11.436;2023-05-01T02:06:57;4.50;99.90
29571;DHT22;16814;52.118;11.436;2023-05-01T02:09:25;4.50;99.90
29571;DHT22;16814;52.118;11.436;2023-05-01T02:11:53;4.40;99.90
29571;DHT22;16814;52.118;11.436;2023-05-01T02:14:24;4.40;99.90
29571;DHT22;16814;52.118;11.436;2023-05-01T02:16:51;4.40;99.90
29571;DHT22;16814;52.118;11.436;2023-05-01T02:19:18;4.40;99.90
29571;DHT22;16814;52.118;11.436;2023-05-01T02:21:44;4.30;99.90
29571;DHT22;16814;52.118;11.436;2023-05-01T02:24:11;4.30;99.90
29571;DHT22;16814;52.118;11.436;2023-05-01T02:26:42;4.30;99.90
29571;DHT22;16814;52.118;11.436;2023-05-01T02:29:12;4.40;99.90
29571;DHT22;16814;52.118;11.436;2023-05-01T02:31:38;4.40;99.90
29571;DHT22;16814;52.118;11.436;2023-05-01T02:34:03;4.40;99.90
29571;DHT22;16814;52.118;11.436;2023-05-01T02:36:29;4.40;99.90
29571;DHT22;16814;52.118;11.436;2023-05-01T02:38:56;4.30;99.90
29571;DHT22;16814;52.118;11.436;2023-05-01T02:41:23;4.20;99.90
29571;DHT22;16814;52.118;11.436;2023-05-01T02:44:01;4.00;99.90
29571;DHT22;16814;52.118;11.436;2023-05-01T02:46:35;3.90;99.90
29571;DHT22;16814;52.118;11.436;2023-05-01T02:49:02;3.90;99.90
29571;DHT22;16814;52.118;11.436;2023-05-01T02:51:28;3.90;99.90
29571;DHT22;16814;52.118;11.436;2023-05-01T02:53:56;3.90;99.90
29571;DHT22;16814;52.118;11.436;2023-05-01T02:56:24;4.10;99.90
29571;DHT22;16814;52.118;11.436;2023-05-01T02:58:51;4.10;99.90
29571;DHT22;16814;52.118;11.436;2023-05-01T03:01:17;4.20;99.90
29571;DHT22;16814;52.118;11.436;2023-05-01T03:03:45;4.20;99.90
29571;DHT22;16814;52.118;11.436;2023-05-01T03:06:12;4.10;99.90
29571;DHT22;16814;52.118;11.436;2023-05-01T03:08:40;4.10;99.90
29571;DHT22;16814;52.118;11.436;2023-05-01T03:11:06;4.20;99.90
29571;DHT22;16814;52.118;11.436;2023-05-01T03:13:34;4.30;99.90
29571;DHT22;16814;52.118;11.436;2023-05-01T03:16:00;4.40;99.90
29571;DHT22;16814;52.118;11.436;2023-05-01T03:18:27;4.30;99.90
29571;DHT22;16814;52.118;11.436;2023-05-01T03:20:54;4.30;99.90
29571;DHT22;16814;52.118;11.436;2023-05-01T03:23:21;4.40;99.90
29571;DHT22;16814;52.118;11.436;2023-05-01T03:25:48;4.20;99.90
29571;DHT22;16814;52.118;11.436;2023-05-01T03:28:13;4.10;99.90
29571;DHT22;16814;52.118;11.436;2023-05-01T03:30:39;4.00;99.90
29571;DHT22;16814;52.118;11.436;2023-05-01T03:33:05;4.00;99.90
29571;DHT22;16814;52.118;11.436;2023-05-01T03:35:30;4.00;99.90
29571;DHT22;16814;52.118;11.436;2023-05-01T03:37:56;4.00;99.90
29571;DHT22;16814;52.118;11.436;2023-05-01T03:40:21;4.00;99.90
29571;DHT22;16814;52.118;11.436;2023-05-01T03:42:47;4.00;99.90
29571;DHT22;16814;52.118;11.436;2023-05-01T03:45:13;4.00;99.90
29571;DHT22;16814;52.118;11.436;2023-05-01T03:47:39;4.00;99.90
29571;DHT22;16814;52.118;11.436;2023-05-01T03:50:04;3.90;99.90
29571;DHT22;16814;52.118;11.436;2023-05-01T03:52:30;3.70;99.90
29571;DHT22;16814;52.118;11.436;2023-05-01T03:54:56;3.60;99.90
29571;DHT22;16814;52.118;11.436;2023-05-01T03:57:22;3.60;99.90
29571;DHT22;16814;52.118;11.436;2023-05-01T03:59:49;3.60;99.90
29571;DHT22;16814;52.118;11.436;2023-05-01T04:02:14;3.80;99.90
29571;DHT22;16814;52.118;11.436;2023-05-01T04:04:40;4.00;99.90
29571;DHT22;16814;52.118;11.436;2023-05-01T04:07:06;4.00;99.90
29571;DHT22;16814;52.118;11.436;2023-05-01T04:09:31;3.90;99.90
29571;DHT22;16814;52.118;11.436;2023-05-01T04:11:57;3.90;99.90
29571;DHT22;16814;52.118;11.436;2023-05-01T04:14:23;3.90;99.90
29571;DHT22;16814;52.118;11.436;2023-05-01T04:16:48;3.90;99.90
29571;DHT22;16814;52.118;11.436;2023-05-01T04:19:15;4.00;99.90
29571;DHT22;16814;52.118;11.436;2023-05-01T04:21:42;4.10;99.90
29571;DHT22;16814;52.118;11.436;2023-05-01T04:24:07;4.30;99.90
29571;DHT22;16814;52.118;11.436;2023-05-01T04:26:33;4.40;99.90
29571;DHT22;16814;52.118;11.436;2023-05-01T04:28:58;4.30;99.90
29571;DHT22;16814;52.118;11.436;2023-05-01T04:31:25;4.40;99.90
29571;DHT22;16814;52.118;11.436;2023-05-01T04:33:50;4.50;99.90
29571;DHT22;16814;52.118;11.436;2023-05-01T04:36:17;4.50;99.90
29571;DHT22;16814;52.118;11.436;2023-05-01T04:38:42;4.70;99.90
29571;DHT22;16814;52.118;11.436;2023-05-01T04:41:09;4.70;99.90
29571;DHT22;16814;52.118;11.436;2023-05-01T04:43:34;4.80;99.90
29571;DHT22;16814;52.118;11.436;2023-05-01T04:46:00;5.00;99.90
29571;DHT22;16814;52.118;11.436;2023-05-01T04:48:25;5.10;99.90
29571;DHT22;16814;52.118;11.436;2023-05-01T04:50:51;5.20;99.90
29571;DHT22;16814;52.118;11.436;2023-05-01T04:53:16;5.40;99.90
29571;DHT22;16814;52.118;11.436;2023-05-01T04:55:42;5.70;99.90
29571;DHT22;16814;52.118;11.436;2023-05-01T04:58:07;6.00;99.90
29571;DHT22;16814;52.118;11.436;2023-05-01T05:00:35;5.90;99.90
29571;DHT22;16814;52.118;11.436;2023-05-01T05:03:00;6.10;99.90
29571;DHT22;16814;52.118;11.436;2023-05-01T05:05:26;6.20;99.90
29571;DHT22;16814;52.118;11.436;2023-05-01T05:07:54;6.40;99.90
29571;DHT22;16814;52.118;11.436;2023-05-01T05:10:19;6.50;99.90
29571;DHT22;16814;52.118;11.436;2023-05-01T05:12:47;6.70;99.90
29571;DHT22;16814;52.118;11.436;2023-05-01T05:15:13;6.80;99.90
29571;DHT22;16814;52.118;11.436;2023-05-01T05:17:39;7.10;99.90
29571;DHT22;16814;52.118;11.436;2023-05-01T05:20:05;7.40;99.90
29571;DHT22;16814;52.118;11.436;2023-05-01T05:22:31;7.60;99.90
29571;DHT22;16814;52.118;11.436;2023-05-01T05:24:59;7.90;99.90
29571;DHT22;16814;52.118;11.436;2023-05-01T05:27:28;8.60;99.90
29571;DHT22;16814;52.118;11.436;2023-05-01T05:29:55;9.40;99.90
29571;DHT22;16814;52.118;11.436;2023-05-01T05:32:20;9.80;99.90
29571;DHT22;16814;52.118;11.436;2023-05-01T05:34:46;9.70;99.90
29571;DHT22;16814;52.118;11.436;2023-05-01T05:37:12;9.80;99.90
29571;DHT22;16814;52.118;11.436;2023-05-01T05:39:37;9.90;99.90
29571;DHT22;16814;52.118;11.436;2023-05-01T05:42:03;9.70;99.90
29571;DHT22;16814;52.118;11.436;2023-05-01T05:44:28;9.30;99.90
29571;DHT22;16814;52.118;11.436;2023-05-01T05:46:56;9.00;99.90
29571;DHT22;16814;52.118;11.436;2023-05-01T05:49:21;8.90;99.90
29571;DHT22;16814;52.118;11.436;2023-05-01T05:51:47;8.70;99.90
29571;DHT22;16814;52.118;11.436;2023-05-01T05:54:12;8.60;99.90
29571;DHT22;16814;52.118;11.436;2023-05-01T05:56:38;8.40;99.90
29571;DHT22;16814;52.118;11.436;2023-05-01T05:59:03;8.50;99.90
29571;DHT22;16814;52.118;11.436;2023-05-01T06:01:30;8.60;99.90
29571;DHT22;16814;52.118;11.436;2023-05-01T06:03:56;8.90;99.90
29571;DHT22;16814;52.118;11.436;2023-05-01T06:06:22;9.30;99.90
29571;DHT22;16814;52.118;11.436;2023-05-01T06:08:48;9.70;99.90
29571;DHT22;16814;52.118;11.436;2023-05-01T06:11:14;10.10;99.90
29571;DHT22;16814;52.118;11.436;2023-05-01T06:13:39;10.40;99.90
29571;DHT22;16814;52.118;11.436;2023-05-01T06:16:05;11.50;99.90
29571;DHT22;16814;52.118;11.436;2023-05-01T06:18:32;12.20;99.90
29571;DHT22;16814;52.118;11.436;2023-05-01T06:20:57;12.40;99.90
29571;DHT22;16814;52.118;11.436;2023-05-01T06:23:24;11.80;99.90
29571;DHT22;16814;52.118;11.436;2023-05-01T06:25:50;11.30;99.90
29571;DHT22;16814;52.118;11.436;2023-05-01T06:28:15;11.30;99.90
29571;DHT22;16814;52.118;11.436;2023-05-01T06:30:41;11.50;99.90
29571;DHT22;16814;52.118;11.436;2023-05-01T06:33:07;12.10;99.90
29571;DHT22;16814;52.118;11.436;2023-05-01T06:35:34;12.30;99.90
29571;DHT22;16814;52.118;11.436;2023-05-01T06:37:59;12.30;99.90
29571;DHT22;16814;52.118;11.436;2023-05-01T06:40:25;12.40;99.90
29571;DHT22;16814;52.118;11.436;2023-05-01T06:42:50;12.50;99.90
29571;DHT22;16814;52.118;11.436;2023-05-01T06:45:16;12.60;99.90
29571;DHT22;16814;52.118;11.436;2023-05-01T06:47:42;12.60;99.90
29571;DHT22;16814;52.118;11.436;2023-05-01T06:50:08;12.60;99.90
29571;DHT22;16814;52.118;11.436;2023-05-01T06:52:33;12.60;99.90
29571;DHT22;16814;52.118;11.436;2023-05-01T06:54:59;12.70;99.90
29571;DHT22;16814;52.118;11.436;2023-05-01T06:57:25;12.60;99.90
29571;DHT22;16814;52.118;11.436;2023-05-01T06:59:51;12.50;99.90
29571;DHT22;16814;52.118;11.436;2023-05-01T07:02:16;12.30;99.90
29571;DHT22;16814;52.118;11.436;2023-05-01T07:04:42;12.30;99.90
29571;DHT22;16814;52.118;11.436;2023-05-01T07:07:09;12.10;99.90
29571;DHT22;16814;52.118;11.436;2023-05-01T07:09:34;11.70;99.90
29571;DHT22;16814;52.118;11.436;2023-05-01T07:12:00;11.50;99.90
29571;DHT22;16814;52.118;11.436;2023-05-01T07:14:27;11.60;99.90
29571;DHT22;16814;52.118;11.436;2023-05-01T07:16:53;11.70;99.90
29571;DHT22;16814;52.118;11.436;2023-05-01T07:19:19;11.80;99.90
29571;DHT22;16814;52.118;11.436;2023-05-01T07:21:45;12.00;99.90
29571;DHT22;16814;52.118;11.436;2023-05-01T07:24:11;12.30;99.90
29571;DHT22;16814;52.118;11.436;2023-05-01T07:26:36;12.60;99.90
29571;DHT22;16814;52.118;11.436;2023-05-01T07:29:03;12.70;99.90
29571;DHT22;16814;52.118;11.436;2023-05-01T07:31:28;12.80;99.90
29571;DHT22;16814;52.118;11.436;2023-05-01T07:33:54;12.70;99.90
29571;DHT22;16814;52.118;11.436;2023-05-01T07:36:19;12.80;99.90
29571;DHT22;16814;52.118;11.436;2023-05-01T07:38:47;13.20;99.90
29571;DHT22;16814;52.118;11.436;2023-05-01T07:41:12;13.60;99.90
29571;DHT22;16814;52.118;11.436;2023-05-01T07:43:38;13.70;99.90
29571;DHT22;16814;52.118;11.436;2023-05-01T07:46:03;13.90;99.90
29571;DHT22;16814;52.118;11.436;2023-05-01T07:48:30;14.00;99.90
29571;DHT22;16814;52.118;11.436;2023-05-01T07:50:56;14.20;99.90
29571;DHT22;16814;52.118;11.436;2023-05-01T07:53:25;14.30;99.90
29571;DHT22;16814;52.118;11.436;2023-05-01T07:55:51;14.50;99.90
29571;DHT22;16814;52.118;11.436;2023-05-01T07:58:17;14.90;99.90
29571;DHT22;16814;52.118;11.436;2023-05-01T08:00:43;14.70;99.90
29571;DHT22;16814;52.118;11.436;2023-05-01T08:03:11;14.60;99.90
29571;DHT22;16814;52.118;11.436;2023-05-01T08:05:40;14.80;99.90
29571;DHT22;16814;52.118;11.436;2023-05-01T08:08:06;14.80;99.90
29571;DHT22;16814;52.118;11.436;2023-05-01T08:10:34;15.00;99.90
29571;DHT22;16814;52.118;11.436;2023-05-01T08:13:00;15.10;99.90
29571;DHT22;16814;52.118;11.436;2023-05-01T08:15:25;15.30;99.90
29571;DHT22;16814;52.118;11.436;2023-05-01T08:17:51;15.50;99.90
29571;DHT22;16814;52.118;11.436;2023-05-01T08:20:16;15.50;99.90
29571;DHT22;16814;52.118;11.436;2023-05-01T08:22:42;15.50;99.90
29571;DHT22;16814;52.118;11.436;2023-05-01T08:25:08;15.40;99.90
29571;DHT22;16814;52.118;11.436;2023-05-01T08:27:33;15.40;99.90
29571;DHT22;16814;52.118;11.436;2023-05-01T08:29:59;15.60;99.90
29571;DHT22;16814;52.118;11.436;2023-05-01T08:32:25;15.70;99.90
29571;DHT22;16814;52.118;11.436;2023-05-01T08:34:50;15.90;99.90
29571;DHT22;16814;52.118;11.436;2023-05-01T08:37:16;15.90;98.20
29571;DHT22;16814;52.118;11.436;2023-05-01T08:39:44;16.00;99.50
29571;DHT22;16814;52.118;11.436;2023-05-01T08:42:10;16.10;98.20
29571;DHT22;16814;52.118;11.436;2023-05-01T08:44:37;16.00;98.00
29571;DHT22;16814;52.118;11.436;2023-05-01T08:49:32;16.00;99.20
29571;DHT22;16814;52.118;11.436;2023-05-01T08:52:00;16.20;98.10
29571;DHT22;16814;52.118;11.436;2023-05-01T08:54:26;16.30;95.70
29571;DHT22;16814;52.118;11.436;2023-05-01T08:56:54;16.40;97.20
29571;DHT22;16814;52.118;11.436;2023-05-01T08:59:26;16.30;96.00
29571;DHT22;16814;52.118;11.436;2023-05-01T09:01:53;16.10;96.10
29571;DHT22;16814;52.118;11.436;2023-05-01T09:04:19;16.20;96.20
29571;DHT22;16814;52.118;11.436;2023-05-01T09:06:45;16.30;96.80
29571;DHT22;16814;52.118;11.436;2023-05-01T09:09:11;16.60;96.80
29571;DHT22;16814;52.118;11.436;2023-05-01T09:11:36;16.70;96.00
29571;DHT22;16814;52.118;11.436;2023-05-01T09:14:02;16.90;96.50
29571;DHT22;16814;52.118;11.436;2023-05-01T09:16:32;16.90;95.50
29571;DHT22;16814;52.118;11.436;2023-05-01T09:18:59;17.20;94.50
29571;DHT22;16814;52.118;11.436;2023-05-01T09:21:26;17.40;95.00
29571;DHT22;16814;52.118;11.436;2023-05-01T09:23:52;17.50;93.30
29571;DHT22;16814;52.118;11.436;2023-05-01T09:26:18;17.60;93.70
29571;DHT22;16814;52.118;11.436;2023-05-01T09:28:45;17.50;93.40
29571;DHT22;16814;52.118;11.436;2023-05-01T09:31:26;17.60;94.10
29571;DHT22;16814;52.118;11.436;2023-05-01T09:33:58;17.90;93.80
29571;DHT22;16814;52.118;11.436;2023-05-01T09:36:34;18.30;93.90
29571;DHT22;16814;52.118;11.436;2023-05-01T09:39:02;18.30;92.70
29571;DHT22;16814;52.118;11.436;2023-05-01T09:41:28;18.30;92.50
29571;DHT22;16814;52.118;11.436;2023-05-01T09:43:57;18.40;90.30
29571;DHT22;16814;52.118;11.436;2023-05-01T09:46:24;17.90;89.40
29571;DHT22;16814;52.118;11.436;2023-05-01T09:49:00;17.60;91.00
29571;DHT22;16814;52.118;11.436;2023-05-01T09:51:31;17.40;92.60
29571;DHT22;16814;52.118;11.436;2023-05-01T09:53:59;17.30;92.20
29571;DHT22;16814;52.118;11.436;2023-05-01T09:56:26;17.20;92.30
29571;DHT22;16814;52.118;11.436;2023-05-01T09:58:54;17.10;92.60
29571;DHT22;16814;52.118;11.436;2023-05-01T10:01:39;17.40;93.50
29571;DHT22;16814;52.118;11.436;2023-05-01T10:04:05;17.70;92.20
29571;DHT22;16814;52.118;11.436;2023-05-01T10:06:31;18.00;92.10
29571;DHT22;16814;52.118;11.436;2023-05-01T10:08:57;18.10;91.50
29571;DHT22;16814;52.118;11.436;2023-05-01T10:11:22;18.30;91.60
29571;DHT22;16814;52.118;11.436;2023-05-01T10:14:08;18.50;90.60
29571;DHT22;16814;52.118;11.436;2023-05-01T10:16:35;18.70;90.10
29571;DHT22;16814;52.118;11.436;2023-05-01T10:19:02;18.70;90.10
29571;DHT22;16814;52.118;11.436;2023-05-01T10:21:29;18.80;91.30
29571;DHT22;16814;52.118;11.436;2023-05-01T10:23:54;19.00;90.20
29571;DHT22;16814;52.118;11.436;2023-05-01T10:26:20;19.30;90.40
29571;DHT22;16814;52.118;11.436;2023-05-01T10:28:47;19.80;89.80
29571;DHT22;16814;52.118;11.436;2023-05-01T10:31:14;20.10;86.40
29571;DHT22;16814;52.118;11.436;2023-05-01T10:33:41;20.10;87.10
29571;DHT22;16814;52.118;11.436;2023-05-01T10:36:12;20.00;87.80
29571;DHT22;16814;52.118;11.436;2023-05-01T10:38:39;19.90;89.20
29571;DHT22;16814;52.118;11.436;2023-05-01T10:41:05;19.90;83.30
29571;DHT22;16814;52.118;11.436;2023-05-01T10:43:31;20.00;85.10
29571;DHT22;16814;52.118;11.436;2023-05-01T10:51:11;20.10;83.10
29571;DHT22;16814;52.118;11.436;2023-05-01T10:53:38;20.20;81.40
29571;DHT22;16814;52.118;11.436;2023-05-01T10:56:04;20.40;82.70
29571;DHT22;16814;52.118;11.436;2023-05-01T11:01:34;20.40;78.30
29571;DHT22;16814;52.118;11.436;2023-05-01T11:04:05;20.20;78.80
29571;DHT22;16814;52.118;11.436;2023-05-01T11:06:35;20.20;81.50
29571;DHT22;16814;52.118;11.436;2023-05-01T11:12:47;19.50;79.60
29571;DHT22;16814;52.118;11.436;2023-05-01T11:15:26;19.50;81.60
29571;DHT22;16814;52.118;11.436;2023-05-01T11:17:52;19.50;81.80
29571;DHT22;16814;52.118;11.436;2023-05-01T11:22:57;19.80;80.10
29571;DHT22;16814;52.118;11.436;2023-05-01T11:25:27;19.80;80.20
29571;DHT22;16814;52.118;11.436;2023-05-01T11:27:57;19.70;79.30
29571;DHT22;16814;52.118;11.436;2023-05-01T11:30:23;19.70;80.70
29571;DHT22;16814;52.118;11.436;2023-05-01T11:32:50;19.70;81.00
29571;DHT22;16814;52.118;11.436;2023-05-01T11:35:19;19.50;81.90
29571;DHT22;16814;52.118;11.436;2023-05-01T11:37:46;19.40;80.40
29571;DHT22;16814;52.118;11.436;2023-05-01T11:40:32;19.20;84.20
29571;DHT22;16814;52.118;11.436;2023-05-01T11:43:06;19.40;81.00
29571;DHT22;16814;52.118;11.436;2023-05-01T11:45:34;19.60;81.10
29571;DHT22;16814;52.118;11.436;2023-05-01T11:48:00;19.70;82.00
29571;DHT22;16814;52.118;11.436;2023-05-01T11:50:33;19.70;80.20
29571;DHT22;16814;52.118;11.436;2023-05-01T11:53:00;19.70;80.80
29571;DHT22;16814;52.118;11.436;2023-05-01T11:55:32;19.90;80.90
29571;DHT22;16814;52.118;11.436;2023-05-01T11:57:58;19.80;77.90
29571;DHT22;16814;52.118;11.436;2023-05-01T12:00:28;19.60;78.90
29571;DHT22;16814;52.118;11.436;2023-05-01T12:05:28;19.50;79.80
29571;DHT22;16814;52.118;11.436;2023-05-01T12:08:19;19.40;81.20
29571;DHT22;16814;52.118;11.436;2023-05-01T12:10:55;19.10;80.40
29571;DHT22;16814;52.118;11.436;2023-05-01T12:13:21;19.00;80.60
29571;DHT22;16814;52.118;11.436;2023-05-01T12:15:50;19.00;80.00
29571;DHT22;16814;52.118;11.436;2023-05-01T12:18:16;19.10;81.70
29571;DHT22;16814;52.118;11.436;2023-05-01T12:20:44;19.10;83.00
29571;DHT22;16814;52.118;11.436;2023-05-01T12:23:12;19.20;82.50
29571;DHT22;16814;52.118;11.436;2023-05-01T12:25:41;19.30;81.90
29571;DHT22;16814;52.118;11.436;2023-05-01T12:28:13;19.20;81.70
29571;DHT22;16814;52.118;11.436;2023-05-01T12:30:41;19.10;80.50
29571;DHT22;16814;52.118;11.436;2023-05-01T12:33:08;19.10;82.00
29571;DHT22;16814;52.118;11.436;2023-05-01T12:35:35;19.00;83.10
29571;DHT22;16814;52.118;11.436;2023-05-01T12:38:09;18.90;83.70
29571;DHT22;16814;52.118;11.436;2023-05-01T12:40:37;18.90;82.50
29571;DHT22;16814;52.118;11.436;2023-05-01T12:43:03;18.80;84.40
29571;DHT22;16814;52.118;11.436;2023-05-01T12:45:28;18.80;83.90
29571;DHT22;16814;52.118;11.436;2023-05-01T12:47:54;19.00;83.20
29571;DHT22;16814;52.118;11.436;2023-05-01T12:50:20;19.00;84.90
29571;DHT22;16814;52.118;11.436;2023-05-01T12:52:46;19.10;84.20
29571;DHT22;16814;52.118;11.436;2023-05-01T12:55:12;19.30;83.40
29571;DHT22;16814;52.118;11.436;2023-05-01T12:57:51;19.30;82.90
29571;DHT22;16814;52.118;11.436;2023-05-01T13:00:18;19.20;83.20
29571;DHT22;16814;52.118;11.436;2023-05-01T13:02:43;18.80;81.50
29571;DHT22;16814;52.118;11.436;2023-05-01T13:05:10;18.80;84.40
29571;DHT22;16814;52.118;11.436;2023-05-01T13:07:37;18.90;81.30
29571;DHT22;16814;52.118;11.436;2023-05-01T13:10:05;18.90;83.30
29571;DHT22;16814;52.118;11.436;2023-05-01T13:12:31;19.10;80.90
29571;DHT22;16814;52.118;11.436;2023-05-01T13:14:57;19.20;81.20
29571;DHT22;16814;52.118;11.436;2023-05-01T13:17:32;19.20;82.90
29571;DHT22;16814;52.118;11.436;2023-05-01T13:20:02;19.40;80.80
29571;DHT22;16814;52.118;11.436;2023-05-01T13:22:29;19.40;79.20
29571;DHT22;16814;52.118;11.436;2023-05-01T13:24:54;19.40;81.30
29571;DHT22;16814;52.118;11.436;2023-05-01T13:27:21;19.40;79.90
29571;DHT22;16814;52.118;11.436;2023-05-01T13:29:57;19.60;77.60
29571;DHT22;16814;52.118;11.436;2023-05-01T13:32:24;19.60;78.40
29571;DHT22;16814;52.118;11.436;2023-05-01T13:34:50;19.50;78.80
29571;DHT22;16814;52.118;11.436;2023-05-01T13:37:16;19.50;80.00
29571;DHT22;16814;52.118;11.436;2023-05-01T13:39:43;19.40;80.30
29571;DHT22;16814;52.118;11.436;2023-05-01T13:42:17;19.30;79.10
29571;DHT22;16814;52.118;11.436;2023-05-01T13:44:51;19.30;79.70
29571;DHT22;16814;52.118;11.436;2023-05-01T13:47:18;19.30;79.70
29571;DHT22;16814;52.118;11.436;2023-05-01T13:49:44;19.20;79.50
29571;DHT22;16814;52.118;11.436;2023-05-01T13:52:19;19.00;81.00
29571;DHT22;16814;52.118;11.436;2023-05-01T13:54:46;19.10;80.90
29571;DHT22;16814;52.118;11.436;2023-05-01T13:57:15;19.10;80.70
29571;DHT22;16814;52.118;11.436;2023-05-01T13:59:43;19.10;79.50
29571;DHT22;16814;52.118;11.436;2023-05-01T14:02:20;19.10;80.60
29571;DHT22;16814;52.118;11.436;2023-05-01T14:04:49;19.30;82.40
29571;DHT22;16814;52.118;11.436;2023-05-01T14:07:19;19.50;82.60
29571;DHT22;16814;52.118;11.436;2023-05-01T14:09:53;19.50;78.70
29571;DHT22;16814;52.118;11.436;2023-05-01T14:12:27;19.50;82.50
29571;DHT22;16814;52.118;11.436;2023-05-01T14:14:52;19.80;83.20
29571;DHT22;16814;52.118;11.436;2023-05-01T14:17:18;19.90;80.60
29571;DHT22;16814;52.118;11.436;2023-05-01T14:19:44;20.00;83.20
29571;DHT22;16814;52.118;11.436;2023-05-01T14:22:09;19.90;77.80
29571;DHT22;16814;52.118;11.436;2023-05-01T14:24:39;19.80;75.90
29571;DHT22;16814;52.118;11.436;2023-05-01T14:27:08;19.80;78.00
29571;DHT22;16814;52.118;11.436;2023-05-01T14:29:35;19.80;78.20
29571;DHT22;16814;52.118;11.436;2023-05-01T14:32:03;19.60;77.00
29571;DHT22;16814;52.118;11.436;2023-05-01T14:34:31;19.50;75.70
29571;DHT22;16814;52.118;11.436;2023-05-01T14:36:57;19.50;80.00
29571;DHT22;16814;52.118;11.436;2023-05-01T14:39:24;19.50;79.80
29571;DHT22;16814;52.118;11.436;2023-05-01T14:41:50;19.60;79.00
29571;DHT22;16814;52.118;11.436;2023-05-01T14:44:17;19.60;77.40
29571;DHT22;16814;52.118;11.436;2023-05-01T14:46:45;19.50;78.60
29571;DHT22;16814;52.118;11.436;2023-05-01T14:49:20;19.40;78.40
29571;DHT22;16814;52.118;11.436;2023-05-01T14:51:47;19.40;79.00
29571;DHT22;16814;52.118;11.436;2023-05-01T14:54:13;19.30;78.80
29571;DHT22;16814;52.118;11.436;2023-05-01T14:56:41;19.40;79.80
29571;DHT22;16814;52.118;11.436;2023-05-01T14:59:07;19.30;82.80
29571;DHT22;16814;52.118;11.436;2023-05-01T15:01:33;19.20;83.60
29571;DHT22;16814;52.118;11.436;2023-05-01T15:03:58;19.30;84.80
29571;DHT22;16814;52.118;11.436;2023-05-01T15:06:24;19.30;87.40
29571;DHT22;16814;52.118;11.436;2023-05-01T15:08:50;19.40;87.20
29571;DHT22;16814;52.118;11.436;2023-05-01T15:11:16;19.50;86.50
29571;DHT22;16814;52.118;11.436;2023-05-01T15:13:45;19.40;85.70
29571;DHT22;16814;52.118;11.436;2023-05-01T15:16:13;19.30;85.60
29571;DHT22;16814;52.118;11.436;2023-05-01T15:18:39;19.20;86.60
29571;DHT22;16814;52.118;11.436;2023-05-01T15:21:04;19.30;87.10
29571;DHT22;16814;52.118;11.436;2023-05-01T15:23:30;19.40;85.40
29571;DHT22;16814;52.118;11.436;2023-05-01T15:25:56;19.10;86.00
29571;DHT22;16814;52.118;11.436;2023-05-01T15:28:22;19.00;87.10
29571;DHT22;16814;52.118;11.436;2023-05-01T15:30:50;19.00;88.20
29571;DHT22;16814;52.118;11.436;2023-05-01T15:33:16;19.10;87.30
29571;DHT22;16814;52.118;11.436;2023-05-01T15:35:42;19.00;85.80
29571;DHT22;16814;52.118;11.436;2023-05-01T15:38:08;19.20;86.80
29571;DHT22;16814;52.118;11.436;2023-05-01T15:40:33;19.00;85.30
29571;DHT22;16814;52.118;11.436;2023-05-01T15:43:00;18.90;83.90
29571;DHT22;16814;52.118;11.436;2023-05-01T15:45:26;18.60;85.10
29571;DHT22;16814;52.118;11.436;2023-05-01T15:47:52;18.60;85.80
29571;DHT22;16814;52.118;11.436;2023-05-01T15:50:17;18.80;85.30
29571;DHT22;16814;52.118;11.436;2023-05-01T15:52:43;18.60;87.20
29571;DHT22;16814;52.118;11.436;2023-05-01T15:55:10;18.70;87.30
29571;DHT22;16814;52.118;11.436;2023-05-01T15:57:36;18.70;88.80